Time;durP1;ratioP1;P1;durP2;ratioP2;P2;SDS_P1;SDS_P2;PMS_P1;PMS_P2;Temp;Humidity;BMP_temperature;BMP_pressure;BME280_temperature;BME280_humidity;BME280_pressure;Samples;Min_cycle;Max_cycle;Signal;HPM_P1;HPM_P2
2023/05/28 00:00:36;;;;;;;28.33;25.70;;;10.80;79.50;;;;;;5036533;28;20830;-87
2023/05/28 00:05:37;;;;;;;28.20;25.43;;;10.70;79.70;;;;;;4700886;26;20239;-87
2023/05/28 00:08:02;;;;;;;29.57;26.47;;;10.70;79.70;;;;;;5034527;28;20173;-86
2023/05/28 00:10:30;;;;;;;29.20;26.70;;;10.70;79.60;;;;;;5034750;28;20202;-87
2023/05/28 00:12:56;;;;;;;29.30;26.37;;;10.60;79.70;;;;;;5041652;22;20323;-87
2023/05/28 00:19:07;;;;;;;25.03;14.63;;;10.60;79.90;;;;;;4975388;28;20287;-87
2023/05/28 00:21:33;;;;;;;23.20;13.97;;;10.80;81.70;;;;;;4974672;28;20242;-86
2023/05/28 00:24:59;;;;;;;17.80;13.63;;;10.80;82.40;;;;;;4974702;28;20183;-87
2023/05/28 00:27:24;;;;;;;27.17;12.87;;;10.60;82.80;;;;;;4950687;28;20237;-87
2023/05/28 00:30:44;;;;;;;19.10;12.63;;;10.60;83.20;;;;;;4958516;28;20186;-86
2023/05/28 00:36:07;;;;;;;23.43;12.73;;;10.30;83.70;;;;;;4971178;28;20178;-86
2023/05/28 00:38:32;;;;;;;20.73;11.33;;;10.30;84.00;;;;;;5009123;28;20188;-86
2023/05/28 00:40:58;;;;;;;20.27;11.70;;;10.20;84.30;;;;;;5013906;28;20543;-86
2023/05/28 00:43:23;;;;;;;16.93;10.37;;;10.20;84.40;;;;;;5013872;28;20647;-86
2023/05/28 00:45:50;;;;;;;20.90;11.13;;;10.20;84.60;;;;;;5013751;28;20205;-86
2023/05/28 00:48:17;;;;;;;14.80;10.30;;;10.20;84.50;;;;;;5013783;28;20267;-86
2023/05/28 00:50:43;;;;;;;20.57;12.37;;;10.20;84.50;;;;;;5013615;28;20181;-86
2023/05/28 00:53:10;;;;;;;17.73;10.87;;;10.20;84.40;;;;;;5013682;28;20570;-86
2023/05/28 00:55:36;;;;;;;16.27;10.53;;;10.20;84.50;;;;;;5014855;28;20182;-86
2023/05/28 00:58:07;;;;;;;20.93;12.07;;;10.20;84.50;;;;;;5014855;28;20185;-87
2023/05/28 01:00:33;;;;;;;18.37;10.40;;;10.10;84.40;;;;;;5013639;28;20178;-87
2023/05/28 01:03:00;;;;;;;23.17;10.23;;;10.20;84.30;;;;;;5014761;28;20199;-87
2023/05/28 01:05:25;;;;;;;18.13;10.73;;;10.10;84.10;;;;;;5013459;28;20256;-87
2023/05/28 01:07:51;;;;;;;15.40;11.30;;;10.10;83.90;;;;;;5014248;28;20201;-87
2023/05/28 01:10:17;;;;;;;21.27;11.97;;;10.20;83.60;;;;;;5013222;28;20276;-87
2023/05/28 01:12:44;;;;;;;19.90;11.73;;;10.10;83.40;;;;;;5013053;28;20213;-87
2023/05/28 01:15:10;;;;;;;19.80;12.80;;;10.20;83.30;;;;;;5013345;28;20182;-87
2023/05/28 01:17:38;;;;;;;22.93;12.97;;;10.10;83.20;;;;;;5013801;28;20197;-87
2023/05/28 01:20:10;;;;;;;20.33;11.50;;;10.20;83.30;;;;;;5014403;28;20181;-87
2023/05/28 01:22:45;;;;;;;23.17;11.33;;;10.20;83.20;;;;;;5014397;28;20627;-87
2023/05/28 01:25:12;;;;;;;20.37;11.87;;;10.10;83.20;;;;;;5014310;28;20600;-87
2023/05/28 01:27:39;;;;;;;16.40;12.03;;;10.20;83.30;;;;;;5014284;28;20158;-87
2023/05/28 01:30:09;;;;;;;18.10;12.07;;;10.10;83.20;;;;;;5014484;28;20592;-87
2023/05/28 01:32:36;;;;;;;24.27;12.67;;;10.10;83.10;;;;;;5012977;28;20247;-87
2023/05/28 01:35:03;;;;;;;17.80;13.40;;;10.00;83.00;;;;;;5013213;28;20264;-87
2023/05/28 01:37:29;;;;;;;16.87;12.60;;;10.00;83.10;;;;;;5012978;28;20209;-87
2023/05/28 01:39:56;;;;;;;16.13;11.43;;;9.90;83.10;;;;;;5012909;28;20200;-87
2023/05/28 01:42:22;;;;;;;24.33;13.13;;;9.90;83.30;;;;;;5014120;28;20197;-87
2023/05/28 01:44:50;;;;;;;16.43;11.77;;;9.80;83.20;;;;;;5013117;28;20695;-87
2023/05/28 01:47:16;;;;;;;14.43;11.10;;;9.80;83.20;;;;;;5014001;28;20225;-87
2023/05/28 01:49:42;;;;;;;19.40;11.57;;;9.80;83.10;;;;;;5012808;28;20174;-87
2023/05/28 01:52:07;;;;;;;16.30;12.33;;;9.80;83.00;;;;;;5012543;28;20328;-87
2023/05/28 01:54:34;;;;;;;16.83;12.47;;;9.70;82.70;;;;;;5013980;28;20178;-88
2023/05/28 01:57:01;;;;;;;20.23;12.93;;;9.70;82.80;;;;;;5012582;28;20177;-87
2023/05/28 01:59:26;;;;;;;18.60;11.93;;;9.70;82.60;;;;;;5012575;28;20185;-87
2023/05/28 02:01:51;;;;;;;18.57;11.83;;;9.70;82.60;;;;;;5012501;28;20220;-87
2023/05/28 02:04:17;;;;;;;22.47;12.47;;;9.70;82.50;;;;;;5012480;28;20655;-87
2023/05/28 02:06:45;;;;;;;25.37;22.77;;;9.70;82.50;;;;;;5012391;28;20201;-87
2023/05/28 02:09:11;;;;;;;26.30;23.03;;;9.70;82.40;;;;;;5013586;28;20580;-87
2023/05/28 02:11:36;;;;;;;26.10;23.70;;;9.70;82.30;;;;;;5012368;28;20213;-87
2023/05/28 02:14:03;;;;;;;28.57;24.10;;;9.60;82.30;;;;;;5013764;28;20288;-87
2023/05/28 02:16:29;;;;;;;36.60;25.77;;;9.60;82.30;;;;;;5013338;28;20173;-87
2023/05/28 02:18:55;;;;;;;31.50;25.83;;;9.80;83.00;;;;;;5013319;28;20176;-87
2023/05/28 02:21:20;;;;;;;30.63;24.33;;;9.80;83.10;;;;;;5012315;28;20201;-86
2023/05/28 02:23:48;;;;;;;26.20;22.43;;;9.80;83.60;;;;;;5012347;28;20181;-86
2023/05/28 02:26:14;;;;;;;31.70;21.63;;;9.80;84.00;;;;;;5012148;28;20278;-85
2023/05/28 02:28:43;;;;;;;33.93;22.20;;;9.80;84.40;;;;;;5014936;28;20212;-87
2023/05/28 02:31:09;;;;;;;22.57;13.50;;;9.70;84.70;;;;;;5016213;28;20208;-86
2023/05/28 02:33:36;;;;;;;21.60;13.57;;;9.80;85.40;;;;;;5016332;28;20231;-87
2023/05/28 02:36:01;;;;;;;22.67;13.50;;;9.80;85.80;;;;;;5016264;28;20674;-87
2023/05/28 02:38:27;;;;;;;27.53;14.00;;;9.70;86.30;;;;;;5016081;28;20185;-86
2023/05/28 02:40:52;;;;;;;31.33;13.87;;;9.70;86.60;;;;;;5016085;28;20183;-86
2023/05/28 02:43:18;;;;;;;28.17;13.00;;;9.60;87.00;;;;;;5016965;28;20197;-87
2023/05/28 02:45:43;;;;;;;24.27;12.40;;;9.50;87.20;;;;;;5017189;28;20255;-86
2023/05/28 02:48:09;;;;;;;25.40;12.53;;;9.40;87.60;;;;;;5017310;28;20197;-87
2023/05/28 02:50:35;;;;;;;24.40;12.90;;;9.30;87.80;;;;;;5016011;28;20165;-87
2023/05/28 02:53:01;;;;;;;30.57;13.47;;;9.10;87.90;;;;;;5015933;28;20575;-86
2023/05/28 02:55:27;;;;;;;27.37;13.43;;;9.00;88.10;;;;;;5015942;28;20212;-86
2023/05/28 02:57:52;;;;;;;25.50;13.53;;;8.80;88.30;;;;;;5015942;28;20215;-88
2023/05/28 03:00:18;;;;;;;29.13;12.83;;;8.80;88.60;;;;;;5017060;28;20591;-88
2023/05/28 03:02:44;;;;;;;25.50;12.77;;;8.60;88.70;;;;;;5016925;28;20196;-88
2023/05/28 03:05:09;;;;;;;21.77;13.23;;;8.50;88.80;;;;;;5015641;28;20554;-89
2023/05/28 03:07:35;;;;;;;22.87;12.43;;;8.40;88.90;;;;;;5016784;28;20205;-88
2023/05/28 03:10:00;;;;;;;22.43;13.70;;;8.40;89.10;;;;;;5015625;28;20189;-87
2023/05/28 03:12:26;;;;;;;24.40;12.33;;;8.40;89.30;;;;;;5016670;28;20340;-88
2023/05/28 03:14:51;;;;;;;33.03;14.47;;;8.40;89.50;;;;;;5015466;28;20574;-87
2023/05/28 03:17:17;;;;;;;28.30;13.97;;;8.30;89.70;;;;;;5015522;28;20196;-87
2023/05/28 03:19:42;;;;;;;24.13;12.63;;;8.40;90.00;;;;;;5016054;28;20191;-87
2023/05/28 03:22:08;;;;;;;28.67;12.53;;;8.50;90.20;;;;;;5016506;28;20197;-87
2023/05/28 03:24:34;;;;;;;23.93;13.53;;;8.60;90.30;;;;;;5015271;28;20188;-88
2023/05/28 03:27:01;;;;;;;29.23;13.30;;;8.60;90.40;;;;;;5015248;28;20209;-88
2023/05/28 03:29:27;;;;;;;24.27;13.97;;;8.60;90.40;;;;;;5015238;28;20273;-87
2023/05/28 03:31:52;;;;;;;25.60;13.20;;;8.60;90.50;;;;;;5016455;28;20276;-87
2023/05/28 03:34:18;;;;;;;29.77;14.10;;;8.60;90.60;;;;;;5015169;28;20177;-87
2023/05/28 03:36:44;;;;;;;24.47;13.47;;;8.70;90.60;;;;;;5015161;28;20200;-87
2023/05/28 03:39:10;;;;;;;32.07;13.83;;;8.70;90.70;;;;;;5015003;28;20268;-88
2023/05/28 03:41:36;;;;;;;28.00;13.57;;;8.70;90.80;;;;;;5014438;28;20197;-87
2023/05/28 03:44:03;;;;;;;27.27;13.60;;;8.90;90.90;;;;;;5015018;28;20185;-87
2023/05/28 03:46:28;;;;;;;30.60;13.23;;;9.00;90.90;;;;;;5016101;28;20691;-87
2023/05/28 03:48:54;;;;;;;23.50;12.80;;;9.00;90.80;;;;;;5016080;28;20181;-87
2023/05/28 03:51:21;;;;;;;29.73;14.30;;;9.10;90.80;;;;;;5014826;28;20635;-87
2023/05/28 03:53:47;;;;;;;27.53;13.53;;;9.10;90.80;;;;;;5014853;28;20268;-87
2023/05/28 03:56:13;;;;;;;25.70;13.57;;;9.20;90.90;;;;;;5014774;28;20304;-87
2023/05/28 03:58:38;;;;;;;22.77;12.53;;;9.30;90.80;;;;;;5015900;28;20187;-87
2023/05/28 04:01:04;;;;;;;22.13;11.47;;;9.30;90.80;;;;;;5014784;28;20166;-87
2023/05/28 04:03:29;;;;;;;22.87;12.50;;;9.30;90.80;;;;;;5014674;28;20228;-87
2023/05/28 04:05:55;;;;;;;24.97;12.67;;;9.40;90.70;;;;;;5014519;28;20691;-87
2023/05/28 04:08:20;;;;;;;24.60;12.90;;;9.40;90.80;;;;;;5015783;28;20179;-87
2023/05/28 04:10:46;;;;;;;22.87;12.17;;;9.40;90.80;;;;;;5014554;28;20212;-88
2023/05/28 04:13:11;;;;;;;31.10;16.83;;;9.50;90.90;;;;;;5014543;28;20673;-87
2023/05/28 04:15:37;;;;;;;29.50;17.27;;;9.50;90.90;;;;;;5014338;28;20238;-86
2023/05/28 04:18:02;;;;;;;37.60;18.10;;;9.50;91.00;;;;;;5015852;28;20244;-88
2023/05/28 04:20:29;;;;;;;32.00;18.40;;;9.50;91.10;;;;;;5014492;28;20557;-88
2023/05/28 04:22:54;;;;;;;28.57;17.73;;;9.60;91.20;;;;;;5016504;28;20706;-88
2023/05/28 04:25:20;;;;;;;31.33;17.67;;;9.70;91.30;;;;;;5014325;28;20170;-88
2023/05/28 04:27:46;;;;;;;32.97;19.77;;;9.80;91.40;;;;;;5015608;28;20701;-88
2023/05/28 04:30:12;;;;;;;29.40;17.87;;;9.80;91.40;;;;;;5014165;28;20174;-88
2023/05/28 04:32:40;;;;;;;25.70;18.67;;;9.90;91.40;;;;;;5014295;28;20556;-88
2023/05/28 04:35:10;;;;;;;27.23;13.10;;;9.90;91.50;;;;;;5015282;28;20157;-88
2023/05/28 04:37:39;;;;;;;30.83;14.03;;;10.00;91.50;;;;;;5014008;28;20223;-88
2023/05/28 04:40:07;;;;;;;29.37;13.97;;;10.00;91.40;;;;;;5013938;28;20199;-88
2023/05/28 04:42:33;;;;;;;29.93;13.80;;;10.10;91.50;;;;;;5013777;28;20280;-88
2023/05/28 04:44:58;;;;;;;28.43;13.57;;;10.10;91.60;;;;;;5013849;28;20212;-88
2023/05/28 04:47:24;;;;;;;29.03;13.33;;;10.20;91.70;;;;;;5014992;28;20255;-88
2023/05/28 04:49:49;;;;;;;26.20;12.53;;;10.30;91.70;;;;;;5013770;28;20224;-88
2023/05/28 04:52:16;;;;;;;31.23;15.97;;;10.30;91.70;;;;;;5012582;28;20193;-87
2023/05/28 04:54:44;;;;;;;30.30;12.83;;;10.50;91.80;;;;;;5013689;28;20174;-88
2023/05/28 04:57:10;;;;;;;29.33;13.37;;;10.50;91.70;;;;;;5013721;28;20648;-87
2023/05/28 04:59:35;;;;;;;34.63;13.20;;;10.60;91.70;;;;;;5013556;28;20181;-88
2023/05/28 05:02:01;;;;;;;33.60;13.30;;;10.60;91.70;;;;;;5013848;28;20208;-88
2023/05/28 05:04:26;;;;;;;27.83;14.30;;;10.70;91.70;;;;;;5014820;28;20185;-87
2023/05/28 05:06:52;;;;;;;22.53;12.70;;;10.80;91.60;;;;;;5014538;28;20209;-88
2023/05/28 05:09:18;;;;;;;35.63;14.97;;;10.80;91.50;;;;;;5013800;28;20260;-88
2023/05/28 05:11:44;;;;;;;31.30;13.03;;;10.90;91.50;;;;;;5013495;28;20554;-87
2023/05/28 05:14:10;;;;;;;33.43;13.03;;;11.00;91.40;;;;;;5014513;28;20165;-88
2023/05/28 05:16:36;;;;;;;25.57;12.93;;;11.00;91.30;;;;;;5013394;28;20184;-88
2023/05/28 05:19:01;;;;;;;24.53;12.20;;;11.10;91.20;;;;;;5014505;28;20177;-88
2023/05/28 05:21:27;;;;;;;23.07;12.13;;;11.10;91.10;;;;;;5013552;28;20694;-88
2023/05/28 05:23:52;;;;;;;26.07;11.60;;;11.20;91.00;;;;;;5013134;28;20647;-88
2023/05/28 05:26:18;;;;;;;25.43;12.70;;;11.30;90.90;;;;;;5013031;28;20201;-88
2023/05/28 05:28:44;;;;;;;28.17;12.17;;;11.40;90.80;;;;;;5014605;28;20178;-88
2023/05/28 05:31:13;;;;;;;30.13;12.47;;;11.50;90.80;;;;;;5013675;28;20650;-89
2023/05/28 05:33:40;;;;;;;29.40;12.30;;;11.50;90.70;;;;;;5012972;28;20182;-88
2023/05/28 05:36:07;;;;;;;39.03;13.07;;;11.60;90.60;;;;;;5013010;28;20177;-89
2023/05/28 05:38:33;;;;;;;25.30;11.57;;;11.80;90.70;;;;;;5012894;28;20177;-89
2023/05/28 05:40:58;;;;;;;28.10;11.87;;;11.80;90.60;;;;;;5012890;28;20189;-88
2023/05/28 05:43:24;;;;;;;21.43;11.33;;;11.90;90.40;;;;;;5014060;28;20285;-89
2023/05/28 05:45:49;;;;;;;26.10;11.73;;;12.00;90.30;;;;;;5012747;28;20679;-89
2023/05/28 05:48:15;;;;;;;31.93;12.47;;;12.00;90.10;;;;;;5012842;28;20260;-89
2023/05/28 05:50:51;;;;;;;23.13;11.07;;;12.10;90.10;;;;;;5012831;28;20177;-89
2023/05/28 05:53:17;;;;;;;26.90;12.67;;;12.20;89.90;;;;;;5013037;28;20173;-88
2023/05/28 05:55:43;;;;;;;24.73;11.80;;;12.20;89.50;;;;;;5012715;28;20157;-89
2023/05/28 05:58:09;;;;;;;25.67;10.20;;;12.30;89.40;;;;;;5012548;28;20173;-88
2023/05/28 06:00:35;;;;;;;26.17;11.20;;;12.30;89.00;;;;;;5013771;28;20177;-88
2023/05/28 06:03:00;;;;;;;27.63;11.83;;;12.30;88.70;;;;;;5012433;28;20200;-88
2023/05/28 06:05:26;;;;;;;23.40;10.60;;;12.40;88.20;;;;;;5013687;28;20174;-88
2023/05/28 06:07:52;;;;;;;25.90;10.50;;;12.30;87.70;;;;;;5012549;28;20644;-89
2023/05/28 06:10:18;;;;;;;29.90;11.57;;;12.60;87.80;;;;;;5012494;28;20165;-89
2023/05/28 06:12:43;;;;;;;21.73;11.50;;;12.70;87.70;;;;;;5012388;28;20213;-88
2023/05/28 06:15:11;;;;;;;23.93;10.13;;;12.80;87.50;;;;;;5012394;28;20189;-89
2023/05/28 06:17:36;;;;;;;21.40;10.50;;;12.90;87.50;;;;;;5012325;28;20550;-88
2023/05/28 06:20:04;;;;;;;26.40;10.37;;;12.90;87.00;;;;;;5012393;28;20264;-88
2023/05/28 06:22:30;;;;;;;23.63;10.50;;;13.10;87.00;;;;;;5012375;28;20729;-88
2023/05/28 06:24:56;;;;;;;27.60;11.37;;;13.10;86.60;;;;;;5012287;28;20181;-88
2023/05/28 06:27:22;;;;;;;28.27;10.77;;;13.20;86.50;;;;;;5012139;28;20201;-88
2023/05/28 06:29:48;;;;;;;19.70;10.87;;;13.20;86.60;;;;;;5012157;28;20174;-88
2023/05/28 06:32:13;;;;;;;24.77;11.30;;;13.20;86.00;;;;;;5012248;28;20328;-88
2023/05/28 06:34:39;;;;;;;25.53;11.87;;;13.30;86.30;;;;;;5012094;28;20184;-88
2023/05/28 06:37:05;;;;;;;28.43;11.53;;;13.30;85.80;;;;;;5013703;28;20184;-88
2023/05/28 06:39:31;;;;;;;26.57;10.70;;;13.30;85.50;;;;;;5012493;28;20181;-88
2023/05/28 06:41:57;;;;;;;20.40;11.00;;;13.40;85.90;;;;;;5012190;28;20592;-89
2023/05/28 06:44:22;;;;;;;23.83;10.53;;;13.50;85.80;;;;;;5012833;28;20177;-89
2023/05/28 06:46:48;;;;;;;22.53;16.23;;;13.50;85.70;;;;;;5012025;28;20205;-88
2023/05/28 06:49:13;;;;;;;26.93;16.40;;;13.50;85.30;;;;;;5012021;28;20177;-88
2023/05/28 06:51:39;;;;;;;24.33;16.70;;;13.40;84.00;;;;;;5011950;28;20219;-88
2023/05/28 06:54:05;;;;;;;28.60;17.47;;;13.40;83.60;;;;;;5012055;28;20192;-89
2023/05/28 06:56:30;;;;;;;24.93;18.07;;;13.40;83.50;;;;;;5012553;28;20177;-88
2023/05/28 06:58:56;;;;;;;26.43;17.37;;;13.50;83.60;;;;;;5012313;28;20272;-86
2023/05/28 07:01:21;;;;;;;24.87;10.87;;;13.50;83.30;;;;;;5013644;28;20272;-86
2023/05/28 07:03:47;;;;;;;21.07;10.30;;;13.60;83.50;;;;;;5013811;28;20640;-86
2023/05/28 07:06:12;;;;;;;23.17;10.87;;;13.70;83.50;;;;;;5012285;28;20220;-87
2023/05/28 07:08:44;;;;;;;26.77;11.10;;;13.90;83.70;;;;;;5012051;28;20666;-88
2023/05/28 07:11:13;;;;;;;26.97;11.63;;;14.10;82.90;;;;;;5013052;28;20182;-88
2023/05/28 07:13:39;;;;;;;25.83;11.13;;;14.20;82.60;;;;;;5012737;28;20168;-88
2023/05/28 07:16:06;;;;;;;25.70;11.30;;;14.30;81.90;;;;;;5013611;28;20567;-88
2023/05/28 07:18:31;;;;;;;21.77;10.87;;;14.40;81.80;;;;;;5016665;28;20188;-89
2023/05/28 07:20:57;;;;;;;23.70;11.33;;;14.70;81.70;;;;;;5015307;28;20272;-88
2023/05/28 07:23:22;;;;;;;20.03;11.27;;;14.80;80.50;;;;;;5015725;28;20186;-89
2023/05/28 07:25:49;;;;;;;22.50;11.57;;;14.90;78.80;;;;;;5015407;28;20248;-89
2023/05/28 07:28:14;;;;;;;23.57;11.53;;;15.10;78.70;;;;;;5015336;28;20670;-88
2023/05/28 07:30:41;;;;;;;20.98;11.70;;;15.20;77.70;;;;;;5015145;28;20268;-89
2023/05/28 07:33:07;;;;;;;20.85;11.05;;;15.30;77.30;;;;;;5016465;28;20236;-88
2023/05/28 07:35:33;;;;;;;21.70;10.40;;;15.50;77.80;;;;;;5015245;28;20182;-89
2023/05/28 07:37:59;;;;;;;18.83;10.50;;;15.60;76.40;;;;;;5015862;28;20277;-89
2023/05/28 07:40:24;;;;;;;20.42;11.13;;;15.70;75.70;;;;;;5015059;28;20227;-89
2023/05/28 07:42:50;;;;;;;20.27;11.95;;;15.70;75.90;;;;;;5014912;28;20205;-89
2023/05/28 07:45:16;;;;;;;20.45;10.80;;;15.80;75.90;;;;;;5016481;28;20268;-89
2023/05/28 07:47:41;;;;;;;23.98;11.68;;;15.90;75.60;;;;;;5015019;28;20612;-88
2023/05/28 07:50:07;;;;;;;24.23;11.02;;;16.10;75.00;;;;;;5014851;28;20739;-88
2023/05/28 07:52:33;;;;;;;19.40;10.85;;;16.20;73.70;;;;;;5015098;28;20193;-88
2023/05/28 07:54:59;;;;;;;19.02;11.30;;;16.30;75.20;;;;;;5014880;28;20231;-88
2023/05/28 07:57:25;;;;;;;22.88;12.35;;;16.50;74.10;;;;;;5014777;28;20184;-88
2023/05/28 07:59:51;;;;;;;22.00;12.35;;;16.50;72.80;;;;;;5015252;28;20182;-88
2023/05/28 08:02:17;;;;;;;20.73;10.80;;;16.70;73.70;;;;;;5015873;28;20197;-88
2023/05/28 08:04:42;;;;;;;18.45;10.48;;;16.70;73.30;;;;;;5014840;28;20212;-89
2023/05/28 08:07:10;;;;;;;19.33;11.10;;;16.90;72.80;;;;;;5015360;28;20200;-89
2023/05/28 08:09:36;;;;;;;21.95;12.07;;;17.00;72.60;;;;;;5014654;28;20173;-89
2023/05/28 08:12:02;;;;;;;18.13;11.57;;;17.10;71.50;;;;;;5015323;28;20209;-90
2023/05/28 08:14:28;;;;;;;20.65;12.52;;;17.30;72.60;;;;;;5015898;28;20264;-91
2023/05/28 08:16:53;;;;;;;23.80;12.43;;;17.30;72.10;;;;;;5016458;28;20173;-90
2023/05/28 08:19:19;;;;;;;18.30;13.25;;;17.50;70.90;;;;;;5015796;28;20554;-89
2023/05/28 08:21:45;;;;;;;23.63;14.07;;;17.60;70.30;;;;;;5014382;28;20217;-90
2023/05/28 08:24:10;;;;;;;22.67;13.95;;;17.60;69.70;;;;;;5016251;28;20264;-89
2023/05/28 08:26:37;;;;;;;19.08;14.20;;;17.70;70.70;;;;;;5015269;28;20646;-90
2023/05/28 08:29:04;;;;;;;23.60;14.70;;;17.70;70.50;;;;;;5015537;28;20198;-90
2023/05/28 08:31:30;;;;;;;24.40;14.35;;;17.80;70.40;;;;;;5015338;28;20201;-91
2023/05/28 08:33:57;;;;;;;26.58;15.65;;;17.80;69.90;;;;;;5014123;28;20173;-90
2023/05/28 08:36:22;;;;;;;17.80;14.65;;;17.80;67.70;;;;;;5015807;28;20185;-90
2023/05/28 08:38:48;;;;;;;23.70;14.73;;;17.90;69.10;;;;;;5015287;28;20235;-89
2023/05/28 08:41:46;;;;;;;19.67;15.13;;;18.00;68.40;;;;;;5016293;28;20205;-91
2023/05/28 08:44:12;;;;;;;27.02;16.70;;;18.10;68.40;;;;;;5015936;28;20161;-91
2023/05/28 08:46:37;;;;;;;22.17;15.77;;;18.10;66.70;;;;;;5015629;28;20621;-90
2023/05/28 08:49:03;;;;;;;25.08;15.88;;;18.20;67.80;;;;;;5015535;28;20585;-90
2023/05/28 08:51:33;;;;;;;25.08;16.52;;;18.30;67.70;;;;;;5017025;28;20193;-91
2023/05/28 08:54:00;;;;;;;25.92;16.98;;;18.50;67.30;;;;;;5015051;28;20251;-91
2023/05/28 08:56:26;;;;;;;18.85;16.35;;;18.70;67.30;;;;;;5016057;28;20237;-91
2023/05/28 08:58:52;;;;;;;25.50;19.48;;;18.90;65.70;;;;;;5016644;28;20184;-91
2023/05/28 09:01:17;;;;;;;21.33;17.02;;;18.90;65.40;;;;;;5015830;28;20190;-91
2023/05/28 09:03:43;;;;;;;20.63;16.95;;;19.20;66.10;;;;;;5016961;28;20643;-88
2023/05/28 09:06:09;;;;;;;22.35;16.88;;;19.30;63.50;;;;;;5014638;28;20690;-88
2023/05/28 09:08:35;;;;;;;24.25;17.35;;;19.50;63.70;;;;;;5013357;28;20161;-88
2023/05/28 09:11:12;;;;;;;21.63;17.98;;;19.60;63.70;;;;;;5014322;28;20648;-89
2023/05/28 09:13:45;;;;;;;20.45;18.27;;;19.70;62.60;;;;;;5014863;28;20188;-88
2023/05/28 09:16:20;;;;;;;19.42;16.60;;;19.60;62.30;;;;;;5013379;28;20170;-89
2023/05/28 09:18:48;;;;;;;23.70;16.92;;;19.60;61.40;;;;;;5013674;28;20177;-88
2023/05/28 09:21:14;;;;;;;23.42;17.30;;;19.80;61.30;;;;;;5014069;28;20201;-89
2023/05/28 09:23:39;;;;;;;18.60;16.70;;;20.00;62.10;;;;;;5013098;28;20178;-90
2023/05/28 09:26:11;;;;;;;19.40;17.45;;;20.10;61.90;;;;;;5014404;28;20259;-89
2023/05/28 09:28:41;;;;;;;17.67;15.80;;;20.20;60.70;;;;;;5013408;28;20181;-90
2023/05/28 09:31:07;;;;;;;19.10;16.20;;;20.20;59.40;;;;;;5016221;28;20161;-91
2023/05/28 09:33:33;;;;;;;21.08;17.70;;;20.30;61.10;;;;;;5016393;28;20556;-93
2023/05/28 09:36:00;;;;;;;22.20;20.02;;;20.50;60.40;;;;;;5015160;28;20174;-91
2023/05/28 09:38:27;;;;;;;24.45;20.70;;;20.50;60.80;;;;;;5013839;28;20172;-91
2023/05/28 09:40:55;;;;;;;21.83;19.63;;;20.60;58.70;;;;;;5020777;28;20241;-92
2023/05/28 09:43:28;;;;;;;23.58;21.13;;;20.60;57.70;;;;;;5023264;28;20166;-91
2023/05/28 09:46:09;;;;;;;20.63;18.63;;;20.70;58.90;;;;;;5034818;28;20220;-92
2023/05/28 09:48:37;;;;;;;22.17;19.85;;;20.70;56.70;;;;;;5026417;28;20165;-92
2023/05/28 09:51:04;;;;;;;25.15;19.40;;;20.80;57.30;;;;;;5024731;28;20169;-91
2023/05/28 09:53:34;;;;;;;21.88;19.27;;;21.00;56.60;;;;;;5014446;28;20176;-91
2023/05/28 09:56:02;;;;;;;24.50;19.60;;;21.00;55.60;;;;;;5016240;28;20179;-91
2023/05/28 09:58:34;;;;;;;21.05;18.70;;;20.90;58.00;;;;;;5018379;28;20645;-91
2023/05/28 10:01:03;;;;;;;20.80;18.75;;;21.20;55.80;;;;;;5016919;28;20196;-91
2023/05/28 10:03:36;;;;;;;22.27;19.05;;;21.30;54.30;;;;;;5016767;28;20181;-91
2023/05/28 10:06:10;;;;;;;20.80;18.67;;;21.40;53.20;;;;;;5014986;28;20236;-91
2023/05/28 10:08:37;;;;;;;21.13;18.90;;;21.50;55.50;;;;;;5013848;28;20547;-91
2023/05/28 10:11:06;;;;;;;21.73;19.52;;;21.70;51.80;;;;;;5017283;28;20170;-91
2023/05/28 10:13:31;;;;;;;22.77;19.27;;;21.80;52.10;;;;;;5015884;28;20521;-92
2023/05/28 10:15:57;;;;;;;21.33;19.13;;;21.70;51.10;;;;;;5018621;28;20208;-88
2023/05/28 10:18:24;;;;;;;21.60;19.30;;;21.70;51.40;;;;;;5012438;28;20177;-87
2023/05/28 10:20:51;;;;;;;24.35;19.48;;;21.40;51.00;;;;;;5012388;28;20658;-86
2023/05/28 10:23:17;;;;;;;22.95;19.92;;;21.30;52.80;;;;;;5012448;28;20209;-87
2023/05/28 10:25:43;;;;;;;21.75;19.48;;;21.30;51.80;;;;;;5012549;28;20231;-89
2023/05/28 10:28:13;;;;;;;21.42;18.95;;;21.50;53.40;;;;;;5012650;28;20185;-90
2023/05/28 10:30:39;;;;;;;22.70;18.52;;;21.70;52.80;;;;;;5012326;28;20166;-89
2023/05/28 10:33:09;;;;;;;21.80;19.45;;;21.90;52.60;;;;;;5012386;28;20204;-91
2023/05/28 10:35:35;;;;;;;20.92;18.83;;;22.10;51.50;;;;;;5013083;28;20181;-91
2023/05/28 10:38:04;;;;;;;23.33;19.33;;;22.00;51.60;;;;;;5014486;28;20173;-91
2023/05/28 10:40:31;;;;;;;24.08;19.67;;;22.20;49.60;;;;;;5013751;28;20176;-91
2023/05/28 10:42:58;;;;;;;22.98;19.17;;;22.40;49.40;;;;;;5017320;28;20201;-90
2023/05/28 10:45:37;;;;;;;25.02;20.67;;;22.30;49.80;;;;;;5014180;28;20184;-91
2023/05/28 10:48:03;;;;;;;22.77;20.08;;;22.10;48.90;;;;;;5012894;28;20195;-90
2023/05/28 10:50:29;;;;;;;22.63;20.33;;;21.70;49.00;;;;;;5027461;28;20229;-91
2023/05/28 10:53:17;;;;;;;26.65;19.88;;;21.40;49.50;;;;;;5041434;28;20177;-91
2023/05/28 10:55:53;;;;;;;22.52;20.20;;;21.40;50.60;;;;;;5040312;28;20268;-92
2023/05/28 10:58:35;;;;;;;25.48;19.95;;;21.60;51.60;;;;;;5038913;28;20212;-90
2023/05/28 11:01:11;;;;;;;23.92;19.65;;;21.70;50.90;;;;;;5040461;28;20174;-92
2023/05/28 11:03:45;;;;;;;21.85;19.60;;;21.70;50.40;;;;;;5038165;28;20164;-90
2023/05/28 11:06:11;;;;;;;26.25;19.60;;;22.00;48.80;;;;;;5041605;28;20255;-89
2023/05/28 11:08:42;;;;;;;22.35;20.23;;;22.00;48.60;;;;;;5041683;28;20181;-92
2023/05/28 11:11:11;;;;;;;23.65;19.70;;;22.20;48.40;;;;;;5040168;28;20249;-92
2023/05/28 11:13:52;;;;;;;21.45;19.05;;;22.40;47.30;;;;;;5038380;28;20257;-92
2023/05/28 11:16:18;;;;;;;21.75;19.65;;;22.70;48.60;;;;;;5036015;28;20212;-91
2023/05/28 11:19:04;;;;;;;21.48;19.48;;;22.90;46.80;;;;;;5029280;28;20164;-89
2023/05/28 11:21:31;;;;;;;25.05;19.90;;;23.00;45.80;;;;;;5020917;28;20189;-91
2023/05/28 11:24:01;;;;;;;21.10;19.00;;;23.00;46.40;;;;;;5019637;28;20582;-91
2023/05/28 11:26:27;;;;;;;21.73;19.52;;;23.20;44.50;;;;;;5017324;28;20186;-90
2023/05/28 11:28:53;;;;;;;20.83;18.92;;;23.20;44.80;;;;;;5016844;28;20173;-91
2023/05/28 11:31:18;;;;;;;21.85;19.52;;;23.20;43.60;;;;;;5016532;28;20699;-90
2023/05/28 11:33:47;;;;;;;21.48;19.55;;;23.00;43.10;;;;;;5017026;28;20169;-90
2023/05/28 11:36:18;;;;;;;22.45;19.95;;;22.70;44.90;;;;;;5015721;28;20227;-90
2023/05/28 11:38:44;;;;;;;20.92;18.85;;;22.90;43.70;;;;;;5016754;28;20177;-91
2023/05/28 11:41:09;;;;;;;21.35;18.88;;;22.90;46.00;;;;;;5017467;28;20173;-90
2023/05/28 11:43:35;;;;;;;23.60;19.75;;;22.80;45.70;;;;;;5017201;28;20169;-90
2023/05/28 11:46:01;;;;;;;20.75;18.92;;;23.30;43.00;;;;;;5018295;28;20286;-87
2023/05/28 11:48:27;;;;;;;20.00;18.17;;;23.10;44.40;;;;;;5016662;28;20643;-89
2023/05/28 11:51:00;;;;;;;20.60;18.88;;;23.10;40.20;;;;;;5016275;28;20643;-89
2023/05/28 11:53:43;;;;;;;21.48;19.58;;;22.70;42.70;;;;;;5016036;28;20596;-90
2023/05/28 11:56:10;;;;;;;20.27;18.67;;;23.10;42.30;;;;;;5019066;28;20571;-90
2023/05/28 11:58:39;;;;;;;27.27;19.25;;;22.90;42.30;;;;;;5019666;28;20667;-90
2023/05/28 12:01:05;;;;;;;21.15;19.02;;;23.20;43.10;;;;;;5017867;28;20169;-90
2023/05/28 12:03:31;;;;;;;20.90;19.10;;;23.40;44.20;;;;;;5016982;28;20173;-90
2023/05/28 12:05:57;;;;;;;19.83;18.17;;;23.50;39.20;;;;;;5016773;28;20320;-90
2023/05/28 12:08:22;;;;;;;20.52;18.77;;;23.30;41.10;;;;;;5015914;28;20173;-90
2023/05/28 12:10:48;;;;;;;20.13;18.30;;;23.30;41.20;;;;;;5017615;28;20213;-90
2023/05/28 12:13:15;;;;;;;19.90;18.10;;;23.00;37.80;;;;;;5018187;28;20201;-90
2023/05/28 12:15:43;;;;;;;19.90;18.20;;;22.80;40.70;;;;;;5017677;28;20185;-90
2023/05/28 12:18:09;;;;;;;20.52;18.60;;;23.00;41.80;;;;;;5022459;28;20166;-90
2023/05/28 12:20:40;;;;;;;20.15;18.13;;;22.90;40.90;;;;;;5023534;28;20192;-90
2023/05/28 12:23:11;;;;;;;19.48;17.90;;;22.80;37.50;;;;;;5022484;28;20189;-90
2023/05/28 12:25:43;;;;;;;18.60;17.02;;;22.90;38.60;;;;;;5023092;28;20161;-90
2023/05/28 12:28:13;;;;;;;19.15;17.42;;;23.20;36.90;;;;;;5022806;28;20178;-88
2023/05/28 12:30:39;;;;;;;19.23;17.33;;;23.40;36.50;;;;;;5015770;28;20184;-89
2023/05/28 12:33:05;;;;;;;18.90;17.08;;;23.60;38.90;;;;;;5016158;28;20196;-88
2023/05/28 12:35:31;;;;;;;17.85;16.55;;;24.00;37.10;;;;;;5016490;28;20173;-88
2023/05/28 12:37:57;;;;;;;18.00;16.50;;;24.40;33.90;;;;;;5015016;28;20243;-89